Terminal Aerodrome Forecast
Issued by NWS Upton, NY

Home | Current Version | Previous Version | Text Only | Print | Product List | Glossary On
Versions: 1 2 3 4 5 6 7 8 9 10 11 12 13 14 15 16 17 18 19 20 21 22 23 24 25 26 27 28 29 30 31 32 33 34 35
000
FTUS41 KOKX 051730
TAFJFK
TAF
KJFK 051730Z 0518/0624 04013G21KT P6SM OVC025
     FM052000 03014G22KT P6SM BKN030
     FM060000 03011KT P6SM SCT010 BKN025
     FM060400 03010KT P6SM -DZ SCT007 OVC010
     FM060800 05008KT 3SM -RA BR SCT005 OVC009
     FM061200 07014G20KT 1SM -RA BR OVC008=

USA.gov is the U.S. government's official web portal to all federal, state and local government web resources and services.